sensor_id;sensor_type;location;lat;lon;timestamp;temperature;humidity
13976;DHT22;7062;49.792;9.946;2023-02-18T00:01:27;11.90;99.90
13976;DHT22;7062;49.792;9.946;2023-02-18T00:03:55;11.90;99.90
13976;DHT22;7062;49.792;9.946;2023-02-18T00:06:32;11.90;99.90
13976;DHT22;7062;49.792;9.946;2023-02-18T00:08:59;11.90;99.90
13976;DHT22;7062;49.792;9.946;2023-02-18T00:11:28;11.90;99.90
13976;DHT22;7062;49.792;9.946;2023-02-18T00:13:56;11.80;99.90
13976;DHT22;7062;49.792;9.946;2023-02-18T00:16:23;11.80;99.90
13976;DHT22;7062;49.792;9.946;2023-02-18T00:18:50;11.80;99.90
13976;DHT22;7062;49.792;9.946;2023-02-18T00:21:18;11.80;99.90
13976;DHT22;7062;49.792;9.946;2023-02-18T00:23:44;11.80;99.90
13976;DHT22;7062;49.792;9.946;2023-02-18T00:26:13;11.80;99.90
13976;DHT22;7062;49.792;9.946;2023-02-18T00:28:40;11.90;99.90
13976;DHT22;7062;49.792;9.946;2023-02-18T00:33:32;11.80;99.90
13976;DHT22;7062;49.792;9.946;2023-02-18T00:36:05;11.80;99.90
13976;DHT22;7062;49.792;9.946;2023-02-18T00:38:32;11.90;99.90
13976;DHT22;7062;49.792;9.946;2023-02-18T00:40:58;11.80;99.90
13976;DHT22;7062;49.792;9.946;2023-02-18T00:43:24;11.80;99.90
13976;DHT22;7062;49.792;9.946;2023-02-18T00:45:50;11.80;99.90
13976;DHT22;7062;49.792;9.946;2023-02-18T00:48:15;11.70;99.90
13976;DHT22;7062;49.792;9.946;2023-02-18T00:50:41;11.80;99.90
13976;DHT22;7062;49.792;9.946;2023-02-18T00:53:07;11.80;99.90
13976;DHT22;7062;49.792;9.946;2023-02-18T00:55:37;11.90;99.90
13976;DHT22;7062;49.792;9.946;2023-02-18T00:58:02;11.90;99.90
13976;DHT22;7062;49.792;9.946;2023-02-18T01:00:28;11.90;99.90
13976;DHT22;7062;49.792;9.946;2023-02-18T01:02:53;11.90;99.90
13976;DHT22;7062;49.792;9.946;2023-02-18T01:05:20;11.80;99.90
13976;DHT22;7062;49.792;9.946;2023-02-18T01:07:48;11.80;99.90
13976;DHT22;7062;49.792;9.946;2023-02-18T01:10:14;11.80;99.90
13976;DHT22;7062;49.792;9.946;2023-02-18T01:12:40;11.70;99.90
13976;DHT22;7062;49.792;9.946;2023-02-18T01:15:06;11.60;99.90
13976;DHT22;7062;49.792;9.946;2023-02-18T01:17:33;11.60;99.90
13976;DHT22;7062;49.792;9.946;2023-02-18T01:19:58;11.60;99.90
13976;DHT22;7062;49.792;9.946;2023-02-18T01:22:25;11.60;99.90
13976;DHT22;7062;49.792;9.946;2023-02-18T01:24:51;11.60;99.90
13976;DHT22;7062;49.792;9.946;2023-02-18T01:27:16;11.60;99.90
13976;DHT22;7062;49.792;9.946;2023-02-18T01:29:42;11.60;99.90
13976;DHT22;7062;49.792;9.946;2023-02-18T01:32:08;11.60;99.90
13976;DHT22;7062;49.792;9.946;2023-02-18T01:34:34;11.50;99.90
13976;DHT22;7062;49.792;9.946;2023-02-18T01:37:00;11.50;99.90
13976;DHT22;7062;49.792;9.946;2023-02-18T01:39:25;11.50;99.90
13976;DHT22;7062;49.792;9.946;2023-02-18T01:41:51;11.50;99.90
13976;DHT22;7062;49.792;9.946;2023-02-18T01:44:19;11.50;99.90
13976;DHT22;7062;49.792;9.946;2023-02-18T01:46:46;11.50;99.90
13976;DHT22;7062;49.792;9.946;2023-02-18T01:49:18;11.50;99.90
13976;DHT22;7062;49.792;9.946;2023-02-18T01:51:50;11.50;99.90
13976;DHT22;7062;49.792;9.946;2023-02-18T01:54:26;11.50;99.90
13976;DHT22;7062;49.792;9.946;2023-02-18T01:57:17;11.50;99.90
13976;DHT22;7062;49.792;9.946;2023-02-18T01:59:48;11.50;99.90
13976;DHT22;7062;49.792;9.946;2023-02-18T02:02:18;11.40;99.90
13976;DHT22;7062;49.792;9.946;2023-02-18T02:04:45;11.40;99.90
13976;DHT22;7062;49.792;9.946;2023-02-18T02:07:11;11.50;99.90
13976;DHT22;7062;49.792;9.946;2023-02-18T02:09:38;11.40;99.90
13976;DHT22;7062;49.792;9.946;2023-02-18T02:12:32;11.40;99.90
13976;DHT22;7062;49.792;9.946;2023-02-18T02:18:12;11.50;99.90
13976;DHT22;7062;49.792;9.946;2023-02-18T02:23:39;11.40;99.90
13976;DHT22;7062;49.792;9.946;2023-02-18T02:37:41;11.40;99.90
13976;DHT22;7062;49.792;9.946;2023-02-18T02:40:37;11.40;99.90
13976;DHT22;7062;49.792;9.946;2023-02-18T02:43:42;11.40;99.90
13976;DHT22;7062;49.792;9.946;2023-02-18T02:46:18;11.50;99.90
13976;DHT22;7062;49.792;9.946;2023-02-18T02:49:07;11.50;99.90
13976;DHT22;7062;49.792;9.946;2023-02-18T02:51:43;11.50;99.90
13976;DHT22;7062;49.792;9.946;2023-02-18T02:54:22;11.60;99.90
13976;DHT22;7062;49.792;9.946;2023-02-18T02:56:48;11.50;99.90
13976;DHT22;7062;49.792;9.946;2023-02-18T02:59:21;11.50;99.90
13976;DHT22;7062;49.792;9.946;2023-02-18T03:07:53;11.60;99.90
13976;DHT22;7062;49.792;9.946;2023-02-18T03:20:58;11.60;99.90
13976;DHT22;7062;49.792;9.946;2023-02-18T03:23:28;11.60;99.90
13976;DHT22;7062;49.792;9.946;2023-02-18T03:25:56;11.60;99.90
13976;DHT22;7062;49.792;9.946;2023-02-18T03:28:23;11.50;99.90
13976;DHT22;7062;49.792;9.946;2023-02-18T03:30:59;11.50;99.90
13976;DHT22;7062;49.792;9.946;2023-02-18T03:33:36;11.50;99.90
13976;DHT22;7062;49.792;9.946;2023-02-18T03:36:03;11.40;99.90
13976;DHT22;7062;49.792;9.946;2023-02-18T03:38:35;11.40;99.90
13976;DHT22;7062;49.792;9.946;2023-02-18T03:41:03;11.40;99.90
13976;DHT22;7062;49.792;9.946;2023-02-18T03:43:29;11.40;99.90
13976;DHT22;7062;49.792;9.946;2023-02-18T03:45:54;11.30;99.90
13976;DHT22;7062;49.792;9.946;2023-02-18T03:48:20;11.30;99.90
13976;DHT22;7062;49.792;9.946;2023-02-18T03:50:46;11.30;99.90
13976;DHT22;7062;49.792;9.946;2023-02-18T03:53:12;11.30;99.90
13976;DHT22;7062;49.792;9.946;2023-02-18T03:55:37;11.30;99.90
13976;DHT22;7062;49.792;9.946;2023-02-18T03:58:03;11.20;99.90
13976;DHT22;7062;49.792;9.946;2023-02-18T04:00:28;11.30;99.90
13976;DHT22;7062;49.792;9.946;2023-02-18T04:02:54;11.30;99.90
13976;DHT22;7062;49.792;9.946;2023-02-18T04:05:20;11.30;99.90
13976;DHT22;7062;49.792;9.946;2023-02-18T04:07:45;11.30;99.90
13976;DHT22;7062;49.792;9.946;2023-02-18T04:10:11;11.30;99.90
13976;DHT22;7062;49.792;9.946;2023-02-18T04:12:37;11.30;99.90
13976;DHT22;7062;49.792;9.946;2023-02-18T04:15:03;11.20;99.90
13976;DHT22;7062;49.792;9.946;2023-02-18T04:17:29;11.30;99.90
13976;DHT22;7062;49.792;9.946;2023-02-18T04:19:54;11.20;99.90
13976;DHT22;7062;49.792;9.946;2023-02-18T04:22:20;11.20;99.90
13976;DHT22;7062;49.792;9.946;2023-02-18T04:24:46;11.30;99.90
13976;DHT22;7062;49.792;9.946;2023-02-18T04:27:11;11.30;99.90
13976;DHT22;7062;49.792;9.946;2023-02-18T04:29:37;11.30;99.90
13976;DHT22;7062;49.792;9.946;2023-02-18T04:32:03;11.30;99.90
13976;DHT22;7062;49.792;9.946;2023-02-18T04:34:28;11.30;99.90
13976;DHT22;7062;49.792;9.946;2023-02-18T04:36:54;11.30;99.90
13976;DHT22;7062;49.792;9.946;2023-02-18T04:39:20;11.30;99.90
13976;DHT22;7062;49.792;9.946;2023-02-18T04:41:46;11.30;99.90
13976;DHT22;7062;49.792;9.946;2023-02-18T04:44:11;11.30;99.90
13976;DHT22;7062;49.792;9.946;2023-02-18T04:46:37;11.30;99.90
13976;DHT22;7062;49.792;9.946;2023-02-18T04:49:03;11.30;99.90
13976;DHT22;7062;49.792;9.946;2023-02-18T04:51:29;11.30;99.90
13976;DHT22;7062;49.792;9.946;2023-02-18T04:53:54;11.30;99.90
13976;DHT22;7062;49.792;9.946;2023-02-18T04:56:20;11.30;99.90
13976;DHT22;7062;49.792;9.946;2023-02-18T04:58:46;11.30;99.90
13976;DHT22;7062;49.792;9.946;2023-02-18T05:01:11;11.30;99.90
13976;DHT22;7062;49.792;9.946;2023-02-18T05:03:37;11.30;99.90
13976;DHT22;7062;49.792;9.946;2023-02-18T05:06:03;11.30;99.90
13976;DHT22;7062;49.792;9.946;2023-02-18T05:08:29;11.30;99.90
13976;DHT22;7062;49.792;9.946;2023-02-18T05:10:54;11.30;99.90
13976;DHT22;7062;49.792;9.946;2023-02-18T05:13:20;11.20;99.90
13976;DHT22;7062;49.792;9.946;2023-02-18T05:15:47;11.20;99.90
13976;DHT22;7062;49.792;9.946;2023-02-18T05:18:13;11.30;99.90
13976;DHT22;7062;49.792;9.946;2023-02-18T05:20:38;11.20;99.90
13976;DHT22;7062;49.792;9.946;2023-02-18T05:23:04;11.20;99.90
13976;DHT22;7062;49.792;9.946;2023-02-18T05:25:30;11.20;99.90
13976;DHT22;7062;49.792;9.946;2023-02-18T05:27:55;11.20;99.90
13976;DHT22;7062;49.792;9.946;2023-02-18T05:30:21;11.20;99.90
13976;DHT22;7062;49.792;9.946;2023-02-18T05:32:46;11.10;99.90
13976;DHT22;7062;49.792;9.946;2023-02-18T05:35:12;11.10;99.90
13976;DHT22;7062;49.792;9.946;2023-02-18T05:37:38;11.10;99.90
13976;DHT22;7062;49.792;9.946;2023-02-18T05:40:04;11.10;99.90
13976;DHT22;7062;49.792;9.946;2023-02-18T05:42:30;11.10;99.90
13976;DHT22;7062;49.792;9.946;2023-02-18T05:44:57;11.10;99.90
13976;DHT22;7062;49.792;9.946;2023-02-18T05:47:23;11.10;99.90
13976;DHT22;7062;49.792;9.946;2023-02-18T05:49:49;11.10;99.90
13976;DHT22;7062;49.792;9.946;2023-02-18T05:52:15;11.10;99.90
13976;DHT22;7062;49.792;9.946;2023-02-18T05:54:42;11.20;99.90
13976;DHT22;7062;49.792;9.946;2023-02-18T05:57:09;11.20;99.90
13976;DHT22;7062;49.792;9.946;2023-02-18T05:59:35;11.20;99.90
13976;DHT22;7062;49.792;9.946;2023-02-18T06:02:01;11.30;99.90
13976;DHT22;7062;49.792;9.946;2023-02-18T06:04:27;11.20;99.90
13976;DHT22;7062;49.792;9.946;2023-02-18T06:06:52;11.20;99.90
13976;DHT22;7062;49.792;9.946;2023-02-18T06:09:19;11.20;99.90
13976;DHT22;7062;49.792;9.946;2023-02-18T06:11:44;11.10;99.90
13976;DHT22;7062;49.792;9.946;2023-02-18T06:14:10;11.10;99.90
13976;DHT22;7062;49.792;9.946;2023-02-18T06:16:36;11.10;99.90
13976;DHT22;7062;49.792;9.946;2023-02-18T06:19:02;11.10;99.90
13976;DHT22;7062;49.792;9.946;2023-02-18T06:21:28;11.10;99.90
13976;DHT22;7062;49.792;9.946;2023-02-18T06:23:53;11.10;99.90
13976;DHT22;7062;49.792;9.946;2023-02-18T06:26:19;11.10;99.90
13976;DHT22;7062;49.792;9.946;2023-02-18T06:28:45;11.10;99.90
13976;DHT22;7062;49.792;9.946;2023-02-18T06:31:10;11.10;99.90
13976;DHT22;7062;49.792;9.946;2023-02-18T06:33:36;11.20;99.90
13976;DHT22;7062;49.792;9.946;2023-02-18T06:36:04;11.20;99.90
13976;DHT22;7062;49.792;9.946;2023-02-18T06:38:37;11.20;99.90
13976;DHT22;7062;49.792;9.946;2023-02-18T06:41:03;11.20;99.90
13976;DHT22;7062;49.792;9.946;2023-02-18T06:43:29;11.20;99.90
13976;DHT22;7062;49.792;9.946;2023-02-18T06:45:54;11.20;99.90
13976;DHT22;7062;49.792;9.946;2023-02-18T06:48:20;11.20;99.90
13976;DHT22;7062;49.792;9.946;2023-02-18T06:50:46;11.20;99.90
13976;DHT22;7062;49.792;9.946;2023-02-18T06:53:12;11.20;99.90
13976;DHT22;7062;49.792;9.946;2023-02-18T06:55:38;11.20;99.90
13976;DHT22;7062;49.792;9.946;2023-02-18T06:58:04;11.20;99.90
13976;DHT22;7062;49.792;9.946;2023-02-18T07:00:30;11.30;99.90
13976;DHT22;7062;49.792;9.946;2023-02-18T07:02:55;11.30;99.90
13976;DHT22;7062;49.792;9.946;2023-02-18T07:05:21;11.30;99.90
13976;DHT22;7062;49.792;9.946;2023-02-18T07:07:47;11.30;99.90
13976;DHT22;7062;49.792;9.946;2023-02-18T07:10:12;11.40;99.90
13976;DHT22;7062;49.792;9.946;2023-02-18T07:12:38;11.40;99.90
13976;DHT22;7062;49.792;9.946;2023-02-18T07:15:04;11.40;99.90
13976;DHT22;7062;49.792;9.946;2023-02-18T07:17:29;11.50;99.90
13976;DHT22;7062;49.792;9.946;2023-02-18T07:19:55;11.40;99.90
13976;DHT22;7062;49.792;9.946;2023-02-18T07:22:21;11.50;99.90
13976;DHT22;7062;49.792;9.946;2023-02-18T07:24:53;11.50;99.90
13976;DHT22;7062;49.792;9.946;2023-02-18T07:27:19;11.50;99.90
13976;DHT22;7062;49.792;9.946;2023-02-18T07:29:45;11.60;99.90
13976;DHT22;7062;49.792;9.946;2023-02-18T07:32:12;11.60;99.90
13976;DHT22;7062;49.792;9.946;2023-02-18T07:34:37;11.60;99.90
13976;DHT22;7062;49.792;9.946;2023-02-18T07:37:03;11.60;99.90
13976;DHT22;7062;49.792;9.946;2023-02-18T07:39:34;11.60;99.90
13976;DHT22;7062;49.792;9.946;2023-02-18T07:42:01;11.60;99.90
13976;DHT22;7062;49.792;9.946;2023-02-18T07:44:27;11.60;99.90
13976;DHT22;7062;49.792;9.946;2023-02-18T07:46:53;11.60;99.90
13976;DHT22;7062;49.792;9.946;2023-02-18T07:49:18;11.60;99.90
13976;DHT22;7062;49.792;9.946;2023-02-18T07:51:46;11.70;99.90
13976;DHT22;7062;49.792;9.946;2023-02-18T07:54:12;11.60;99.90
13976;DHT22;7062;49.792;9.946;2023-02-18T07:56:38;11.70;99.90
13976;DHT22;7062;49.792;9.946;2023-02-18T07:59:04;11.80;99.90
13976;DHT22;7062;49.792;9.946;2023-02-18T08:01:30;11.80;99.90
13976;DHT22;7062;49.792;9.946;2023-02-18T08:03:56;11.80;99.90
13976;DHT22;7062;49.792;9.946;2023-02-18T08:06:27;11.80;99.90
13976;DHT22;7062;49.792;9.946;2023-02-18T08:08:53;11.80;99.90
13976;DHT22;7062;49.792;9.946;2023-02-18T08:11:19;11.80;99.90
13976;DHT22;7062;49.792;9.946;2023-02-18T08:13:45;11.80;99.90
13976;DHT22;7062;49.792;9.946;2023-02-18T08:16:10;11.90;99.90
13976;DHT22;7062;49.792;9.946;2023-02-18T08:18:36;12.00;99.90
13976;DHT22;7062;49.792;9.946;2023-02-18T08:21:02;12.00;99.90
13976;DHT22;7062;49.792;9.946;2023-02-18T08:23:27;11.90;99.90
13976;DHT22;7062;49.792;9.946;2023-02-18T08:25:53;12.10;99.90
13976;DHT22;7062;49.792;9.946;2023-02-18T08:28:24;12.20;99.90
13976;DHT22;7062;49.792;9.946;2023-02-18T08:30:52;12.40;99.90
13976;DHT22;7062;49.792;9.946;2023-02-18T08:33:18;12.40;99.90
13976;DHT22;7062;49.792;9.946;2023-02-18T08:35:45;12.40;99.90
13976;DHT22;7062;49.792;9.946;2023-02-18T08:38:11;12.30;99.90
13976;DHT22;7062;49.792;9.946;2023-02-18T08:40:36;12.20;99.90
13976;DHT22;7062;49.792;9.946;2023-02-18T08:43:02;12.20;99.90
13976;DHT22;7062;49.792;9.946;2023-02-18T08:45:28;12.20;99.90
13976;DHT22;7062;49.792;9.946;2023-02-18T08:47:54;12.20;99.90
13976;DHT22;7062;49.792;9.946;2023-02-18T08:50:19;12.30;99.90
13976;DHT22;7062;49.792;9.946;2023-02-18T08:52:50;12.20;99.90
13976;DHT22;7062;49.792;9.946;2023-02-18T08:55:16;12.20;99.90
13976;DHT22;7062;49.792;9.946;2023-02-18T08:57:45;12.20;99.90
13976;DHT22;7062;49.792;9.946;2023-02-18T09:00:11;12.30;99.90
13976;DHT22;7062;49.792;9.946;2023-02-18T09:02:37;12.20;99.90
13976;DHT22;7062;49.792;9.946;2023-02-18T09:05:03;12.20;99.90
13976;DHT22;7062;49.792;9.946;2023-02-18T09:07:29;12.20;99.90
13976;DHT22;7062;49.792;9.946;2023-02-18T09:09:55;12.30;99.90
13976;DHT22;7062;49.792;9.946;2023-02-18T09:12:21;12.20;99.90
13976;DHT22;7062;49.792;9.946;2023-02-18T09:14:47;12.20;99.90
13976;DHT22;7062;49.792;9.946;2023-02-18T09:17:12;12.20;99.90
13976;DHT22;7062;49.792;9.946;2023-02-18T09:19:38;12.30;99.90
13976;DHT22;7062;49.792;9.946;2023-02-18T09:22:04;12.30;99.90
13976;DHT22;7062;49.792;9.946;2023-02-18T09:24:30;12.30;99.90
13976;DHT22;7062;49.792;9.946;2023-02-18T09:26:55;12.40;99.90
13976;DHT22;7062;49.792;9.946;2023-02-18T09:29:21;12.40;99.90
13976;DHT22;7062;49.792;9.946;2023-02-18T09:31:47;12.50;99.90
13976;DHT22;7062;49.792;9.946;2023-02-18T09:34:12;12.50;99.90
13976;DHT22;7062;49.792;9.946;2023-02-18T09:36:38;12.50;99.90
13976;DHT22;7062;49.792;9.946;2023-02-18T09:39:05;12.60;99.90
13976;DHT22;7062;49.792;9.946;2023-02-18T09:41:43;12.70;99.90
13976;DHT22;7062;49.792;9.946;2023-02-18T09:47:35;12.80;99.90
13976;DHT22;7062;49.792;9.946;2023-02-18T09:49:53;12.90;99.90
13976;DHT22;7062;49.792;9.946;2023-02-18T09:52:22;12.90;99.90
13976;DHT22;7062;49.792;9.946;2023-02-18T09:54:49;13.10;99.90
13976;DHT22;7062;49.792;9.946;2023-02-18T09:57:26;13.10;99.90
13976;DHT22;7062;49.792;9.946;2023-02-18T09:59:58;13.30;99.90
13976;DHT22;7062;49.792;9.946;2023-02-18T10:02:26;14.00;99.90
13976;DHT22;7062;49.792;9.946;2023-02-18T10:04:52;14.40;99.90
13976;DHT22;7062;49.792;9.946;2023-02-18T10:07:30;15.40;99.90
13976;DHT22;7062;49.792;9.946;2023-02-18T10:09:57;15.20;99.90
13976;DHT22;7062;49.792;9.946;2023-02-18T10:12:26;15.10;99.90
13976;DHT22;7062;49.792;9.946;2023-02-18T10:14:58;14.80;99.90
13976;DHT22;7062;49.792;9.946;2023-02-18T10:17:26;14.80;99.90
13976;DHT22;7062;49.792;9.946;2023-02-18T10:19:53;15.40;99.90
13976;DHT22;7062;49.792;9.946;2023-02-18T10:22:21;15.60;99.90
13976;DHT22;7062;49.792;9.946;2023-02-18T10:27:36;14.70;99.90
13976;DHT22;7062;49.792;9.946;2023-02-18T10:32:44;14.30;99.90
13976;DHT22;7062;49.792;9.946;2023-02-18T10:35:33;14.30;99.90
13976;DHT22;7062;49.792;9.946;2023-02-18T10:39:01;14.20;99.90
13976;DHT22;7062;49.792;9.946;2023-02-18T10:46:43;13.60;99.90
13976;DHT22;7062;49.792;9.946;2023-02-18T10:49:33;13.50;99.90
13976;DHT22;7062;49.792;9.946;2023-02-18T10:52:04;13.40;99.90
13976;DHT22;7062;49.792;9.946;2023-02-18T10:57:22;13.40;99.90
13976;DHT22;7062;49.792;9.946;2023-02-18T11:00:21;13.50;99.90
13976;DHT22;7062;49.792;9.946;2023-02-18T11:05:28;13.30;99.90
13976;DHT22;7062;49.792;9.946;2023-02-18T11:07:57;13.30;99.90
13976;DHT22;7062;49.792;9.946;2023-02-18T11:10:31;13.30;99.90
13976;DHT22;7062;49.792;9.946;2023-02-18T11:13:03;13.30;99.90
13976;DHT22;7062;49.792;9.946;2023-02-18T11:15:30;13.40;99.90
13976;DHT22;7062;49.792;9.946;2023-02-18T11:17:57;13.40;99.90
13976;DHT22;7062;49.792;9.946;2023-02-18T11:20:37;13.30;99.90
13976;DHT22;7062;49.792;9.946;2023-02-18T11:25:34;13.30;99.90
13976;DHT22;7062;49.792;9.946;2023-02-18T11:28:05;13.30;99.90
13976;DHT22;7062;49.792;9.946;2023-02-18T11:30:39;13.30;99.90
13976;DHT22;7062;49.792;9.946;2023-02-18T11:33:13;13.30;99.90
13976;DHT22;7062;49.792;9.946;2023-02-18T11:35:48;13.30;99.90
13976;DHT22;7062;49.792;9.946;2023-02-18T11:40:56;13.40;99.90
13976;DHT22;7062;49.792;9.946;2023-02-18T11:43:25;13.50;99.90
13976;DHT22;7062;49.792;9.946;2023-02-18T11:48:34;13.60;99.90
13976;DHT22;7062;49.792;9.946;2023-02-18T11:51:01;13.60;99.90
13976;DHT22;7062;49.792;9.946;2023-02-18T11:53:29;13.60;99.90
13976;DHT22;7062;49.792;9.946;2023-02-18T11:55:58;13.70;99.90
13976;DHT22;7062;49.792;9.946;2023-02-18T11:58:24;13.90;99.90
13976;DHT22;7062;49.792;9.946;2023-02-18T12:00:53;14.10;99.90
13976;DHT22;7062;49.792;9.946;2023-02-18T12:03:47;14.10;99.90
13976;DHT22;7062;49.792;9.946;2023-02-18T12:06:37;14.00;99.90
13976;DHT22;7062;49.792;9.946;2023-02-18T12:11:53;14.10;99.90
13976;DHT22;7062;49.792;9.946;2023-02-18T12:14:21;14.00;99.90
13976;DHT22;7062;49.792;9.946;2023-02-18T12:16:56;13.90;99.90
13976;DHT22;7062;49.792;9.946;2023-02-18T12:33:40;13.90;99.90
13976;DHT22;7062;49.792;9.946;2023-02-18T12:36:35;13.80;99.90
13976;DHT22;7062;49.792;9.946;2023-02-18T12:42:02;13.60;99.90
13976;DHT22;7062;49.792;9.946;2023-02-18T12:50:21;13.80;99.90
13976;DHT22;7062;49.792;9.946;2023-02-18T13:03:59;14.00;99.90
13976;DHT22;7062;49.792;9.946;2023-02-18T13:15:02;13.70;99.90
13976;DHT22;7062;49.792;9.946;2023-02-18T13:17:34;13.70;99.90
13976;DHT22;7062;49.792;9.946;2023-02-18T13:20:18;13.70;99.90
13976;DHT22;7062;49.792;9.946;2023-02-18T13:22:46;13.70;99.90
13976;DHT22;7062;49.792;9.946;2023-02-18T13:25:15;13.60;99.90
13976;DHT22;7062;49.792;9.946;2023-02-18T13:28:11;13.50;99.90
13976;DHT22;7062;49.792;9.946;2023-02-18T13:30:42;13.40;99.90
13976;DHT22;7062;49.792;9.946;2023-02-18T13:33:35;13.50;99.90
13976;DHT22;7062;49.792;9.946;2023-02-18T13:39:08;13.50;99.90
13976;DHT22;7062;49.792;9.946;2023-02-18T13:41:39;13.50;99.90
13976;DHT22;7062;49.792;9.946;2023-02-18T13:46:56;13.40;99.90
13976;DHT22;7062;49.792;9.946;2023-02-18T13:49:37;13.40;99.90
13976;DHT22;7062;49.792;9.946;2023-02-18T13:52:04;13.40;99.90
13976;DHT22;7062;49.792;9.946;2023-02-18T13:54:44;13.40;99.90
13976;DHT22;7062;49.792;9.946;2023-02-18T13:57:18;13.40;99.90
13976;DHT22;7062;49.792;9.946;2023-02-18T14:09:59;13.40;99.90
13976;DHT22;7062;49.792;9.946;2023-02-18T14:25:52;13.20;99.90
13976;DHT22;7062;49.792;9.946;2023-02-18T14:28:35;13.30;99.90
13976;DHT22;7062;49.792;9.946;2023-02-18T14:31:26;13.30;99.90
13976;DHT22;7062;49.792;9.946;2023-02-18T14:41:49;13.30;99.90
13976;DHT22;7062;49.792;9.946;2023-02-18T14:44:48;13.30;99.90
13976;DHT22;7062;49.792;9.946;2023-02-18T14:49:53;13.50;99.90
13976;DHT22;7062;49.792;9.946;2023-02-18T14:53:19;13.40;99.90
13976;DHT22;7062;49.792;9.946;2023-02-18T14:55:34;13.40;99.90
13976;DHT22;7062;49.792;9.946;2023-02-18T14:58:02;13.40;99.90
13976;DHT22;7062;49.792;9.946;2023-02-18T15:00:41;13.60;99.90
13976;DHT22;7062;49.792;9.946;2023-02-18T15:03:15;13.70;99.90
13976;DHT22;7062;49.792;9.946;2023-02-18T15:05:41;13.70;99.90
13976;DHT22;7062;49.792;9.946;2023-02-18T15:08:19;13.60;99.90
13976;DHT22;7062;49.792;9.946;2023-02-18T15:13:27;13.60;99.90
13976;DHT22;7062;49.792;9.946;2023-02-18T15:15:59;13.60;99.90
13976;DHT22;7062;49.792;9.946;2023-02-18T15:18:34;13.40;99.90
13976;DHT22;7062;49.792;9.946;2023-02-18T15:21:05;13.20;99.90
13976;DHT22;7062;49.792;9.946;2023-02-18T15:23:35;13.20;99.90
13976;DHT22;7062;49.792;9.946;2023-02-18T15:26:03;13.10;99.90
13976;DHT22;7062;49.792;9.946;2023-02-18T15:28:32;13.00;99.90
13976;DHT22;7062;49.792;9.946;2023-02-18T15:31:02;13.00;99.90
13976;DHT22;7062;49.792;9.946;2023-02-18T15:33:31;12.90;99.90
13976;DHT22;7062;49.792;9.946;2023-02-18T15:36:04;12.80;99.90
13976;DHT22;7062;49.792;9.946;2023-02-18T15:38:30;12.80;99.90
13976;DHT22;7062;49.792;9.946;2023-02-18T15:40:57;12.80;99.90
13976;DHT22;7062;49.792;9.946;2023-02-18T15:43:24;12.80;99.90
13976;DHT22;7062;49.792;9.946;2023-02-18T15:45:54;12.70;99.90
13976;DHT22;7062;49.792;9.946;2023-02-18T15:48:33;12.70;99.90
13976;DHT22;7062;49.792;9.946;2023-02-18T15:51:09;12.50;99.90
13976;DHT22;7062;49.792;9.946;2023-02-18T15:53:41;12.40;99.90
13976;DHT22;7062;49.792;9.946;2023-02-18T15:56:34;12.40;99.90
13976;DHT22;7062;49.792;9.946;2023-02-18T15:59:18;12.30;99.90
13976;DHT22;7062;49.792;9.946;2023-02-18T16:04:38;12.20;99.90
13976;DHT22;7062;49.792;9.946;2023-02-18T16:07:28;12.20;99.90
13976;DHT22;7062;49.792;9.946;2023-02-18T16:10:22;12.20;99.90
13976;DHT22;7062;49.792;9.946;2023-02-18T16:12:54;12.10;99.90
13976;DHT22;7062;49.792;9.946;2023-02-18T16:15:30;12.10;99.90
13976;DHT22;7062;49.792;9.946;2023-02-18T16:17:56;12.00;99.90
13976;DHT22;7062;49.792;9.946;2023-02-18T16:20:30;12.00;99.90
13976;DHT22;7062;49.792;9.946;2023-02-18T16:23:02;12.00;99.90
13976;DHT22;7062;49.792;9.946;2023-02-18T16:25:49;12.00;99.90
13976;DHT22;7062;49.792;9.946;2023-02-18T16:28:24;11.90;99.90
13976;DHT22;7062;49.792;9.946;2023-02-18T16:30:52;11.90;99.90
13976;DHT22;7062;49.792;9.946;2023-02-18T16:33:17;11.80;99.90
13976;DHT22;7062;49.792;9.946;2023-02-18T16:35:44;11.90;99.90
13976;DHT22;7062;49.792;9.946;2023-02-18T16:38:19;11.80;99.90
13976;DHT22;7062;49.792;9.946;2023-02-18T16:40:45;11.70;99.90
13976;DHT22;7062;49.792;9.946;2023-02-18T16:48:35;11.70;99.90
13976;DHT22;7062;49.792;9.946;2023-02-18T16:51:15;11.70;99.90
13976;DHT22;7062;49.792;9.946;2023-02-18T16:53:42;11.60;99.90
13976;DHT22;7062;49.792;9.946;2023-02-18T16:56:16;11.60;99.90
13976;DHT22;7062;49.792;9.946;2023-02-18T16:58:42;11.50;99.90
13976;DHT22;7062;49.792;9.946;2023-02-18T17:01:37;11.50;99.90
13976;DHT22;7062;49.792;9.946;2023-02-18T17:04:08;11.50;99.90
13976;DHT22;7062;49.792;9.946;2023-02-18T17:06:35;11.40;99.90
13976;DHT22;7062;49.792;9.946;2023-02-18T17:09:14;11.40;99.90
13976;DHT22;7062;49.792;9.946;2023-02-18T17:11:43;11.30;99.90
13976;DHT22;7062;49.792;9.946;2023-02-18T17:14:13;11.30;99.90
13976;DHT22;7062;49.792;9.946;2023-02-18T17:16:39;11.30;99.90
13976;DHT22;7062;49.792;9.946;2023-02-18T17:19:07;11.30;99.90
13976;DHT22;7062;49.792;9.946;2023-02-18T17:21:33;11.20;99.90
13976;DHT22;7062;49.792;9.946;2023-02-18T17:23:58;11.20;99.90
13976;DHT22;7062;49.792;9.946;2023-02-18T17:26:27;11.20;99.90
13976;DHT22;7062;49.792;9.946;2023-02-18T17:28:54;11.30;99.90
13976;DHT22;7062;49.792;9.946;2023-02-18T17:31:23;11.20;99.90
13976;DHT22;7062;49.792;9.946;2023-02-18T17:33:52;11.20;99.90
13976;DHT22;7062;49.792;9.946;2023-02-18T17:36:18;11.20;99.90
13976;DHT22;7062;49.792;9.946;2023-02-18T17:38:43;11.10;99.90
13976;DHT22;7062;49.792;9.946;2023-02-18T17:41:13;11.10;99.90
13976;DHT22;7062;49.792;9.946;2023-02-18T17:43:39;11.10;99.90
13976;DHT22;7062;49.792;9.946;2023-02-18T17:46:07;11.10;99.90
13976;DHT22;7062;49.792;9.946;2023-02-18T17:48:34;11.10;99.90
13976;DHT22;7062;49.792;9.946;2023-02-18T17:51:00;11.10;99.90
13976;DHT22;7062;49.792;9.946;2023-02-18T17:53:26;11.20;99.90
13976;DHT22;7062;49.792;9.946;2023-02-18T17:55:51;11.20;99.90
13976;DHT22;7062;49.792;9.946;2023-02-18T17:58:17;11.20;99.90
13976;DHT22;7062;49.792;9.946;2023-02-18T18:00:49;11.20;99.90
13976;DHT22;7062;49.792;9.946;2023-02-18T18:03:15;11.20;99.90
13976;DHT22;7062;49.792;9.946;2023-02-18T18:05:43;11.20;99.90
13976;DHT22;7062;49.792;9.946;2023-02-18T18:08:10;11.20;99.90
13976;DHT22;7062;49.792;9.946;2023-02-18T18:10:44;11.20;99.90
13976;DHT22;7062;49.792;9.946;2023-02-18T18:13:22;11.20;99.90
13976;DHT22;7062;49.792;9.946;2023-02-18T18:15:49;11.20;99.90
13976;DHT22;7062;49.792;9.946;2023-02-18T18:18:15;11.30;99.90
13976;DHT22;7062;49.792;9.946;2023-02-18T18:20:45;11.30;99.90
13976;DHT22;7062;49.792;9.946;2023-02-18T18:23:13;11.30;99.90
13976;DHT22;7062;49.792;9.946;2023-02-18T18:25:44;11.30;99.90
13976;DHT22;7062;49.792;9.946;2023-02-18T18:28:10;11.20;99.90
13976;DHT22;7062;49.792;9.946;2023-02-18T18:30:39;11.30;99.90
13976;DHT22;7062;49.792;9.946;2023-02-18T18:33:15;11.30;99.90
13976;DHT22;7062;49.792;9.946;2023-02-18T18:35:41;11.30;99.90
13976;DHT22;7062;49.792;9.946;2023-02-18T18:38:07;11.30;99.90
13976;DHT22;7062;49.792;9.946;2023-02-18T18:40:33;11.30;99.90